Terminal Aerodrome Forecast
Issued by NWS Jackson, MS

Home | Current Version | Previous Version | Text Only | Print | Product List | Glossary On
Versions: 1 2 3 4 5 6 7 8 9 10 11 12 13 14 15 16 17
000
FTUS44 KMEG 010720 AAA
TAFTUP
TAF AMD
KTUP 010720Z 0107/0206 VRB04KT P6SM BKN060
     FM010900 VRB04KT 6SM BR SCT025 BKN040
     FM011200 VRB04KT 5SM BR BKN015 OVC025
     FM011500 12008KT P6SM SCT025 SCT250
     FM012000 15008KT P6SM VCTS SCT035CB SCT250
      TEMPO 0200/0204 VRB10G20KT 3SM TSRA BKN020CB
     FM020400 17008KT P6SM VCTS BKN035CB OVC150=

USA.gov is the U.S. government's official web portal to all federal, state and local government web resources and services.